ADDS METAR Data INFO
IDs: Format: Raw Decoded Include TAF

Data at: 0636 UTC 15 Dec 2017

KINW 150556Z AUTO 26010KT 10SM CLR M03/M13 A3032 RMK AO2 SLP277 T10281128 10106 21039 51020
KINW 150456Z AUTO 31008KT 10SM CLR 00/M12 A3030 RMK AO2 SLP267 T00001117
KINW 150356Z AUTO 32008KT 10SM CLR 04/M10 A3028 RMK AO2 SLP258 T00391100
KINW 150256Z AUTO 33008KT 10SM CLR 06/M09 A3026 RMK AO2 SLP260 T00561089 51024
KINW 150156Z AUTO 34008KT 10SM CLR 06/M08 A3024 RMK AO2 SLP258 T00611083
KINW 150056Z AUTO 34008KT 10SM CLR 08/M08 A3021 RMK AO2 SLP240 T00831078
KINW 142356Z AUTO 36009KT 10SM CLR 11/M07 A3018 RMK AO2 SLP220 T01111072 10128 20061 53011
KINW 142256Z AUTO 36011G20KT 10SM CLR 12/M07 A3016 RMK AO2 SLP207 T01221067
KINW 142156Z AUTO 01014G19KT 10SM CLR 12/M06 A3014 RMK AO2 SLP201 T01221061
KINW 142056Z AUTO 34012KT 10SM CLR 12/M06 A3014 RMK AO2 SLP200 T01221061 56015
KINW 141956Z AUTO 35012G18KT 10SM CLR 11/M07 A3014 RMK AO2 SLP207 T01111067
KINW 141856Z AUTO 36014G22KT 10SM CLR 10/M06 A3016 RMK AO2 SLP217 T01001061
KINW 141756Z AUTO 04006KT 10SM SCT095 06/M12 A3019 RMK AO2 SLP234 T00611122 10061 21089 51020
KINW 141656Z AUTO 31009KT 10SM OVC090 04/M15 A3018 RMK AO2 SLP228 T00391150
KINW 141556Z AUTO 34006KT 10SM CLR 01/M17 A3015 RMK AO2 SLP226 T00111167
KINW 141456Z AUTO 26006KT 10SM CLR M06/M18 A3012 RMK AO2 SLP226 T10561178 51022
KINW 141356Z AUTO 25005KT 10SM CLR M08/M20 A3009 RMK AO2 SLP223 T10831200
KINW 141256Z AUTO 00000KT 10SM CLR M07/M19 A3007 RMK AO2 SLP208 T10721194
KINW 141156Z AUTO 27005KT 10SM CLR M06/M19 A3004 RMK AO2 SLP175 T10561189 11028 21072 53010
KINW 141056Z AUTO 24005KT 10SM CLR M03/M18 A3003 RMK AO2 SLP164 T10331183
KINW 140956Z AUTO 17004KT 10SM CLR M03/M19 A3001 RMK AO2 SLP156 T10281189
KINW 140856Z AUTO 00000KT 10SM CLR M03/M19 A3001 RMK AO2 SLP159 T10331194 55010
KINW 140756Z AUTO 12003KT 10SM CLR M05/M19 A3001 RMK AO2 SLP164 T10501194
KINW 140656Z AUTO 00000KT 10SM CLR M07/M21 A3003 RMK AO2 SLP182 T10671206 401281133
KINW 140556Z AUTO 17005KT 10SM CLR M05/M19 A3004 RMK AO2 SLP188 T10501194 10111 21061 53003
KINW 140456Z AUTO 10005KT 10SM CLR M02/M18 A3003 RMK AO2 SLP185 T10171178
KINW 140356Z AUTO 16003KT 10SM CLR M02/M19 A3002 RMK AO2 SLP194 T10221189
KINW 140256Z AUTO 19005KT 10SM CLR M01/M19 A3003 RMK AO2 SLP203 T10111189 56010
KINW 140156Z AUTO 20006KT 10SM CLR M02/M21 A3004 RMK AO2 SLP215 T10221211
KINW 140056Z AUTO 00000KT 10SM CLR 02/M20 A3006 RMK AO2 SLP210 T00171200
KINW 132356Z AUTO 00000KT 10SM CLR 11/M16 A3007 RMK AO2 SLP197 T01111156 10128 20033 56019
KINW 132256Z AUTO 30004KT 10SM CLR 12/M16 A3009 RMK AO2 SLP195 T01221156
KINW 132156Z AUTO 00000KT 10SM CLR 12/M16 A3011 RMK AO2 SLP205 T01221156
KINW 132056Z AUTO 35004KT 10SM CLR 11/M16 A3014 RMK AO2 SLP216 T01111161 56036
KINW 131956Z AUTO VRB03KT 10SM CLR 09/M17 A3017 RMK AO2 SLP226 T00941167
KINW 131856Z AUTO 00000KT 10SM CLR 06/M17 A3021 RMK AO2 SLP245 T00611172